Time;durP1;ratioP1;P1;durP2;ratioP2;P2;SDS_P1;SDS_P2;PMS_P1;PMS_P2;Temp;Humidity;BMP_temperature;BMP_pressure;BME280_temperature;BME280_humidity;BME280_pressure;Samples;Min_cycle;Max_cycle;Signal;HPM_P1;HPM_P2
2023/08/01 00:01:32;;;;;;;18.33;4.95;;;16.90;99.90;;;;;;5086809;28;20066;-71
2023/08/01 00:03:58;;;;;;;12.63;4.65;;;16.90;99.90;;;;;;5088410;28;20048;-71
2023/08/01 00:06:24;;;;;;;14.20;4.75;;;16.90;99.90;;;;;;5088028;28;20040;-71
2023/08/01 00:08:51;;;;;;;14.93;4.55;;;16.90;99.90;;;;;;5075983;28;20497;-70
2023/08/01 00:11:17;;;;;;;15.80;4.57;;;16.90;99.90;;;;;;5067882;28;20052;-70
2023/08/01 00:13:45;;;;;;;14.60;4.35;;;16.90;99.90;;;;;;5076247;28;20040;-70
2023/08/01 00:16:11;;;;;;;11.70;4.20;;;16.90;99.90;;;;;;5087157;28;20047;-70
2023/08/01 00:18:37;;;;;;;9.75;4.18;;;16.90;99.90;;;;;;5087550;28;20048;-71
2023/08/01 00:21:05;;;;;;;10.02;3.88;;;16.80;99.90;;;;;;5086701;28;20044;-71
2023/08/01 00:23:31;;;;;;;12.45;4.78;;;16.80;99.90;;;;;;5088014;28;20510;-71
2023/08/01 00:25:57;;;;;;;11.07;3.70;;;16.80;99.90;;;;;;5088099;28;20152;-71
2023/08/01 00:28:23;;;;;;;16.17;4.53;;;16.80;99.90;;;;;;5087106;28;20094;-71
2023/08/01 00:30:49;;;;;;;12.73;4.28;;;16.80;99.90;;;;;;5085587;28;20068;-73
2023/08/01 00:33:15;;;;;;;10.30;3.92;;;16.80;99.90;;;;;;5088145;28;20044;-73
2023/08/01 00:35:41;;;;;;;12.02;3.92;;;16.80;99.90;;;;;;5088012;28;20043;-73
2023/08/01 00:38:06;;;;;;;12.20;3.90;;;16.80;99.90;;;;;;5087706;28;20036;-73
2023/08/01 00:40:34;;;;;;;13.23;4.50;;;16.70;99.90;;;;;;5084059;28;20413;-73
2023/08/01 00:43:00;;;;;;;9.35;4.05;;;16.70;99.90;;;;;;5067323;28;20098;-73
2023/08/01 00:45:30;;;;;;;10.15;4.07;;;16.70;99.90;;;;;;5067241;28;20037;-73
2023/08/01 00:47:56;;;;;;;8.68;3.72;;;16.70;99.90;;;;;;5070460;28;20047;-73
2023/08/01 00:50:23;;;;;;;10.95;3.85;;;16.70;99.90;;;;;;5077917;28;20044;-73
2023/08/01 00:52:52;;;;;;;8.38;3.70;;;16.70;99.90;;;;;;5070452;28;20053;-73
2023/08/01 00:55:19;;;;;;;10.45;3.60;;;16.80;99.90;;;;;;5071169;28;20844;-73
2023/08/01 00:57:45;;;;;;;12.35;4.22;;;16.70;99.90;;;;;;5071135;28;20806;-73
2023/08/01 01:00:11;;;;;;;13.48;4.53;;;16.70;99.90;;;;;;5081421;28;20052;-72
2023/08/01 01:02:37;;;;;;;8.52;3.45;;;16.70;99.90;;;;;;5103549;28;20480;-73
2023/08/01 01:05:05;;;;;;;10.60;4.43;;;16.70;99.90;;;;;;5071628;28;20084;-73
2023/08/01 01:07:31;;;;;;;8.45;3.53;;;16.60;99.90;;;;;;5082533;28;20051;-73
2023/08/01 01:09:58;;;;;;;11.43;3.75;;;16.60;99.90;;;;;;5090400;28;20048;-73
2023/08/01 01:12:23;;;;;;;10.65;4.10;;;16.70;99.90;;;;;;5074667;28;20052;-73
2023/08/01 01:14:49;;;;;;;14.77;4.13;;;16.60;99.90;;;;;;5074572;28;20052;-73
2023/08/01 01:17:15;;;;;;;9.63;4.07;;;16.60;99.90;;;;;;5091382;28;20047;-73
2023/08/01 01:19:41;;;;;;;11.38;4.15;;;16.60;99.90;;;;;;5073080;28;20060;-72
2023/08/01 01:22:11;;;;;;;9.73;4.05;;;16.60;99.90;;;;;;5073245;28;20079;-72
2023/08/01 01:24:37;;;;;;;12.68;4.13;;;16.50;99.90;;;;;;5091847;28;20040;-72
2023/08/01 01:27:05;;;;;;;11.15;3.60;;;16.50;99.90;;;;;;5092772;28;20055;-72
2023/08/01 01:29:33;;;;;;;11.77;3.65;;;16.50;99.90;;;;;;5075132;28;20070;-72
2023/08/01 01:32:02;;;;;;;10.38;3.60;;;16.50;99.90;;;;;;5075140;28;20166;-73
2023/08/01 01:34:29;;;;;;;10.25;3.85;;;16.50;99.90;;;;;;5091206;28;20063;-72
2023/08/01 01:36:54;;;;;;;10.82;4.15;;;16.50;99.90;;;;;;5091406;28;20048;-72
2023/08/01 01:39:20;;;;;;;9.43;3.45;;;16.40;99.90;;;;;;5089787;28;20109;-72
2023/08/01 01:41:46;;;;;;;8.32;3.90;;;16.40;99.90;;;;;;5076736;28;20102;-73
2023/08/01 01:44:12;;;;;;;11.13;4.13;;;16.40;99.90;;;;;;5069647;28;20477;-72
2023/08/01 01:46:38;;;;;;;9.32;3.47;;;16.40;99.90;;;;;;5070453;28;20045;-72
2023/08/01 01:49:04;;;;;;;11.57;3.80;;;16.30;99.90;;;;;;5084225;28;20119;-72
2023/08/01 01:51:30;;;;;;;12.35;3.97;;;16.40;99.90;;;;;;5070975;28;20456;-72
2023/08/01 01:53:56;;;;;;;10.00;3.70;;;16.40;99.90;;;;;;5090675;28;20046;-72
2023/08/01 01:56:22;;;;;;;10.50;3.63;;;16.30;99.90;;;;;;5090060;28;20040;-72
2023/08/01 01:58:48;;;;;;;8.80;3.40;;;16.40;99.90;;;;;;5071823;28;20099;-72
2023/08/01 02:01:13;;;;;;;9.90;3.50;;;16.40;99.90;;;;;;5072649;28;20048;-72
2023/08/01 02:03:39;;;;;;;8.98;3.13;;;16.30;99.90;;;;;;5088156;28;20047;-72
2023/08/01 02:06:05;;;;;;;8.90;3.65;;;16.30;99.90;;;;;;5089385;28;20049;-72
2023/08/01 02:08:31;;;;;;;11.65;4.68;;;16.30;99.90;;;;;;5090150;28;20032;-72
2023/08/01 02:10:58;;;;;;;10.63;3.83;;;16.30;99.90;;;;;;5089097;28;20046;-71
2023/08/01 02:13:25;;;;;;;10.75;4.20;;;16.30;99.90;;;;;;5071922;28;20421;-72
2023/08/01 02:15:51;;;;;;;13.57;3.72;;;16.20;99.90;;;;;;5089152;28;20080;-71
2023/08/01 02:18:17;;;;;;;9.80;3.78;;;16.20;99.90;;;;;;5088156;28;20489;-72
2023/08/01 02:20:42;;;;;;;8.38;3.58;;;16.20;99.90;;;;;;5088086;28;20040;-72
2023/08/01 02:23:11;;;;;;;8.88;3.90;;;16.10;99.90;;;;;;5088563;28;20048;-73
2023/08/01 02:25:40;;;;;;;10.32;3.83;;;16.10;99.90;;;;;;5088891;28;20076;-73
2023/08/01 02:28:07;;;;;;;9.80;3.80;;;16.10;99.90;;;;;;5089082;28;20040;-72
2023/08/01 02:30:33;;;;;;;12.75;3.60;;;16.00;99.90;;;;;;5087427;28;20119;-72
2023/08/01 02:32:59;;;;;;;9.45;3.80;;;16.00;99.90;;;;;;5071880;28;20044;-72
2023/08/01 02:35:25;;;;;;;11.65;4.32;;;16.00;99.90;;;;;;5089176;28;20050;-71
2023/08/01 02:37:51;;;;;;;11.52;3.67;;;16.00;99.90;;;;;;5087583;28;20051;-73
2023/08/01 02:40:17;;;;;;;8.05;3.45;;;15.90;99.90;;;;;;5086664;28;20040;-71
2023/08/01 02:42:42;;;;;;;10.13;3.33;;;15.90;99.90;;;;;;5066989;28;20699;-72
2023/08/01 02:45:11;;;;;;;11.57;3.58;;;15.90;99.90;;;;;;5069590;28;20044;-72
2023/08/01 02:47:37;;;;;;;10.05;3.63;;;15.90;99.90;;;;;;5068735;28;20048;-72
2023/08/01 02:50:03;;;;;;;12.98;4.10;;;15.90;99.90;;;;;;5087331;28;20051;-71
2023/08/01 02:52:30;;;;;;;11.75;4.45;;;15.80;99.90;;;;;;5050748;28;20052;-71
2023/08/01 02:54:55;;;;;;;11.65;4.25;;;15.80;99.90;;;;;;5051481;28;20056;-72
2023/08/01 02:57:21;;;;;;;9.68;4.07;;;15.80;99.90;;;;;;5067098;28;20059;-72
2023/08/01 02:59:47;;;;;;;7.55;3.78;;;15.80;99.90;;;;;;5050138;28;20052;-71
2023/08/01 03:02:13;;;;;;;13.95;4.30;;;15.80;99.90;;;;;;5087092;28;20059;-72
2023/08/01 03:04:38;;;;;;;14.43;4.57;;;15.80;99.90;;;;;;5070806;28;20531;-71
2023/08/01 03:07:04;;;;;;;12.77;4.72;;;15.80;99.90;;;;;;5087497;28;20055;-71
2023/08/01 03:09:31;;;;;;;11.35;4.10;;;15.80;99.90;;;;;;5087374;28;20969;-72
2023/08/01 03:11:57;;;;;;;10.65;4.50;;;15.80;99.90;;;;;;5087013;28;20042;-71
2023/08/01 03:14:23;;;;;;;14.18;4.47;;;15.80;99.90;;;;;;5069604;28;20072;-72
2023/08/01 03:16:49;;;;;;;10.48;4.50;;;15.80;99.90;;;;;;5086753;28;20512;-72
2023/08/01 03:19:14;;;;;;;12.63;4.43;;;15.80;99.90;;;;;;5087113;28;20052;-72
2023/08/01 03:21:40;;;;;;;13.00;4.60;;;15.80;99.90;;;;;;5076934;28;20103;-73
2023/08/01 03:24:09;;;;;;;12.23;4.57;;;15.80;99.90;;;;;;5075596;28;20030;-71
2023/08/01 03:26:36;;;;;;;14.25;5.00;;;15.80;99.90;;;;;;5088530;28;20040;-72
2023/08/01 03:29:02;;;;;;;12.70;4.82;;;15.80;99.90;;;;;;5087400;28;20089;-72
2023/08/01 03:31:28;;;;;;;11.85;4.75;;;15.80;99.90;;;;;;5086577;28;20144;-72
2023/08/01 03:33:54;;;;;;;13.43;4.40;;;15.80;99.90;;;;;;5087171;28;20036;-72
2023/08/01 03:36:20;;;;;;;12.50;4.68;;;15.80;99.90;;;;;;5070316;28;20044;-72
2023/08/01 03:38:46;;;;;;;12.88;4.57;;;15.80;99.90;;;;;;5088896;28;20523;-72
2023/08/01 03:41:12;;;;;;;12.82;3.53;;;15.80;99.90;;;;;;5086445;28;20402;-72
2023/08/01 03:43:38;;;;;;;13.18;4.45;;;15.80;99.90;;;;;;5086853;28;20512;-72
2023/08/01 03:46:04;;;;;;;9.93;3.80;;;15.80;99.90;;;;;;5088296;28;20093;-72
2023/08/01 03:48:30;;;;;;;10.68;4.03;;;15.70;99.90;;;;;;5086767;28;20052;-72
2023/08/01 03:50:56;;;;;;;9.75;3.60;;;15.80;99.90;;;;;;5086833;28;20063;-72
2023/08/01 03:53:22;;;;;;;10.88;3.80;;;15.70;99.90;;;;;;5087615;28;20044;-72
2023/08/01 03:55:48;;;;;;;9.43;3.15;;;15.70;99.90;;;;;;5087846;28;20040;-73
2023/08/01 03:58:14;;;;;;;13.52;3.45;;;15.70;99.90;;;;;;5087883;28;20052;-71
2023/08/01 04:00:40;;;;;;;9.43;2.85;;;15.80;99.90;;;;;;5069364;28;20085;-72
2023/08/01 04:03:06;;;;;;;9.50;3.30;;;15.70;99.90;;;;;;5049817;28;20079;-72
2023/08/01 04:05:32;;;;;;;12.13;2.80;;;15.70;99.90;;;;;;5066124;28;20118;-72
2023/08/01 04:07:57;;;;;;;11.88;2.40;;;15.70;99.90;;;;;;5072820;28;20056;-72
2023/08/01 04:10:23;;;;;;;8.80;2.90;;;15.70;99.90;;;;;;5085843;28;20415;-72
2023/08/01 04:12:49;;;;;;;8.07;2.72;;;15.70;99.90;;;;;;5087803;28;20044;-72
2023/08/01 04:15:15;;;;;;;11.00;2.78;;;15.70;99.90;;;;;;5081320;28;20040;-72
2023/08/01 04:17:41;;;;;;;10.85;3.22;;;15.70;99.90;;;;;;5084693;28;20040;-72
2023/08/01 04:20:08;;;;;;;9.32;2.63;;;15.70;99.90;;;;;;5049635;28;20056;-72
2023/08/01 04:22:33;;;;;;;15.40;2.83;;;15.70;99.90;;;;;;5066708;28;20055;-72
2023/08/01 04:25:01;;;;;;;9.95;2.17;;;15.60;99.90;;;;;;5081191;28;20047;-72
2023/08/01 04:27:27;;;;;;;10.90;2.55;;;15.70;99.90;;;;;;5085804;28;20048;-72
2023/08/01 04:29:54;;;;;;;8.70;2.13;;;15.60;99.90;;;;;;5083677;28;20047;-72
2023/08/01 04:32:19;;;;;;;11.98;2.40;;;15.60;99.90;;;;;;5065447;28;20060;-72
2023/08/01 04:34:45;;;;;;;10.40;2.50;;;15.70;99.90;;;;;;5060401;28;20056;-71
2023/08/01 04:37:11;;;;;;;10.13;2.70;;;15.60;99.90;;;;;;5070783;28;20043;-72
2023/08/01 04:39:37;;;;;;;14.57;2.28;;;15.60;99.90;;;;;;5060954;28;20047;-72
2023/08/01 04:42:03;;;;;;;7.70;2.00;;;15.60;99.90;;;;;;5076508;28;20459;-72
2023/08/01 04:44:30;;;;;;;12.48;2.25;;;15.60;99.90;;;;;;5070854;28;20047;-72
2023/08/01 04:46:56;;;;;;;10.20;1.90;;;15.60;99.90;;;;;;5081817;28;20048;-72
2023/08/01 04:49:22;;;;;;;9.40;2.00;;;15.60;99.90;;;;;;5073847;28;20041;-72
2023/08/01 04:51:50;;;;;;;13.13;1.98;;;15.60;99.90;;;;;;5081251;28;20074;-72
2023/08/01 04:54:15;;;;;;;12.57;2.10;;;15.60;99.90;;;;;;5084763;28;20056;-72
2023/08/01 04:56:41;;;;;;;12.85;2.00;;;15.70;99.90;;;;;;5071812;28;20047;-72
2023/08/01 04:59:07;;;;;;;5.97;1.77;;;15.80;99.90;;;;;;5082042;28;20086;-72
2023/08/01 05:01:33;;;;;;;10.77;2.65;;;15.90;99.90;;;;;;5052025;28;20351;-72
2023/08/01 05:03:59;;;;;;;7.30;1.80;;;15.90;99.90;;;;;;5085278;28;20108;-72
2023/08/01 05:06:27;;;;;;;11.40;2.10;;;16.00;99.90;;;;;;5069288;28;20040;-72
2023/08/01 05:08:53;;;;;;;9.00;1.80;;;16.00;99.90;;;;;;5086052;28;20083;-72
2023/08/01 05:11:19;;;;;;;10.55;1.83;;;16.00;99.90;;;;;;5085219;28;20063;-72
2023/08/01 05:13:45;;;;;;;8.30;2.28;;;16.00;99.90;;;;;;5049506;28;20390;-72
2023/08/01 05:16:11;;;;;;;8.43;1.60;;;16.00;99.90;;;;;;5066049;28;20048;-72
2023/08/01 05:18:37;;;;;;;9.93;2.35;;;16.00;99.90;;;;;;5074416;28;20048;-72
2023/08/01 05:21:02;;;;;;;7.53;1.90;;;16.00;99.90;;;;;;5087097;28;20046;-72
2023/08/01 05:23:28;;;;;;;6.43;2.08;;;15.90;99.90;;;;;;5067696;28;20048;-72
2023/08/01 05:25:54;;;;;;;7.47;1.65;;;15.90;99.90;;;;;;5081425;28;20051;-72
2023/08/01 05:28:20;;;;;;;5.40;1.77;;;15.90;99.90;;;;;;5086158;28;20056;-72
2023/08/01 05:30:45;;;;;;;8.68;2.10;;;15.90;99.90;;;;;;5087639;28;20047;-72
2023/08/01 05:33:11;;;;;;;7.88;1.73;;;15.90;99.90;;;;;;5085893;28;20067;-72
2023/08/01 05:35:37;;;;;;;6.97;1.95;;;15.90;99.90;;;;;;5069009;28;20044;-72
2023/08/01 05:38:02;;;;;;;6.25;1.67;;;15.90;99.90;;;;;;5087200;28;20044;-71
2023/08/01 05:40:28;;;;;;;5.32;1.65;;;15.90;99.90;;;;;;5089499;28;20450;-71
2023/08/01 05:42:54;;;;;;;7.97;2.17;;;15.80;99.90;;;;;;5090199;28;20051;-71
2023/08/01 05:45:19;;;;;;;6.45;1.85;;;15.80;99.90;;;;;;5089158;28;20055;-72
2023/08/01 05:47:45;;;;;;;8.05;2.30;;;15.80;99.90;;;;;;5090752;28;20044;-72
2023/08/01 05:50:11;;;;;;;9.73;2.45;;;15.80;99.90;;;;;;5089776;28;20055;-72
2023/08/01 05:52:37;;;;;;;7.45;2.33;;;15.80;99.90;;;;;;5089233;28;20051;-72
2023/08/01 05:55:03;;;;;;;10.10;2.78;;;15.80;99.90;;;;;;5088949;28;20823;-71
2023/08/01 05:57:29;;;;;;;6.40;2.45;;;15.80;99.90;;;;;;5071172;28;20109;-72
2023/08/01 05:59:55;;;;;;;4.68;2.00;;;15.80;99.90;;;;;;5072436;28;20497;-72
2023/08/01 06:02:22;;;;;;;6.18;2.13;;;15.80;99.90;;;;;;5068285;28;20048;-71
2023/08/01 06:04:48;;;;;;;6.88;2.22;;;15.80;99.90;;;;;;5068668;28;20139;-72
2023/08/01 06:07:13;;;;;;;10.27;2.60;;;15.80;99.90;;;;;;5069651;28;20206;-72
2023/08/01 06:09:39;;;;;;;6.93;2.42;;;15.80;99.90;;;;;;5081430;28;20154;-72
2023/08/01 06:12:05;;;;;;;6.97;2.47;;;15.80;99.90;;;;;;5076738;28;20053;-72
2023/08/01 06:14:31;;;;;;;7.03;2.50;;;15.80;99.90;;;;;;5081799;28;20071;-72
2023/08/01 06:16:57;;;;;;;6.88;2.30;;;15.80;99.90;;;;;;5071992;28;20117;-72
2023/08/01 06:19:22;;;;;;;10.10;2.53;;;15.80;99.90;;;;;;5089999;28;20064;-71
2023/08/01 06:21:48;;;;;;;5.15;2.30;;;15.70;99.90;;;;;;5088884;28;20139;-72
2023/08/01 06:24:14;;;;;;;7.88;1.90;;;15.70;99.90;;;;;;5080801;28;20036;-71
2023/08/01 06:26:39;;;;;;;6.50;2.38;;;15.70;99.90;;;;;;5073092;28;20050;-72
2023/08/01 06:29:05;;;;;;;7.03;2.70;;;15.70;99.90;;;;;;5081413;28;20036;-73
2023/08/01 06:31:31;;;;;;;5.13;1.67;;;15.70;99.90;;;;;;5056964;28;20060;-72
2023/08/01 06:33:57;;;;;;;7.60;1.80;;;15.70;99.90;;;;;;5079875;28;20393;-73
2023/08/01 06:36:23;;;;;;;5.13;1.58;;;15.70;99.90;;;;;;5068102;28;20052;-73
2023/08/01 06:38:49;;;;;;;6.78;1.70;;;15.70;99.90;;;;;;5068747;28;20519;-72
2023/08/01 06:41:14;;;;;;;6.13;1.60;;;15.70;99.90;;;;;;5076892;28;20059;-72
2023/08/01 06:43:40;;;;;;;6.85;1.83;;;15.70;99.90;;;;;;5070743;28;20044;-72
2023/08/01 06:46:06;;;;;;;5.30;1.52;;;15.70;99.90;;;;;;5079458;28;20079;-72
2023/08/01 06:48:34;;;;;;;7.07;2.03;;;15.70;99.90;;;;;;5062739;28;20055;-73
2023/08/01 06:51:02;;;;;;;8.02;1.88;;;15.80;99.90;;;;;;5075832;28;20052;-72
2023/08/01 06:53:28;;;;;;;7.35;2.00;;;15.80;99.90;;;;;;5064084;28;20727;-72
2023/08/01 06:55:53;;;;;;;7.93;1.80;;;15.90;99.90;;;;;;5066420;28;20056;-72
2023/08/01 06:58:19;;;;;;;10.15;2.28;;;15.90;99.90;;;;;;5088958;28;20032;-72
2023/08/01 07:00:45;;;;;;;6.72;1.92;;;16.00;99.90;;;;;;5071424;28;20052;-73
2023/08/01 07:03:10;;;;;;;7.45;1.83;;;16.00;99.90;;;;;;5089351;28;20043;-73
2023/08/01 07:05:37;;;;;;;7.85;1.83;;;16.10;99.90;;;;;;5082831;28;20468;-72
2023/08/01 07:08:03;;;;;;;8.57;1.38;;;16.10;99.90;;;;;;5076267;28;20701;-72
2023/08/01 07:10:30;;;;;;;6.85;1.35;;;16.10;99.90;;;;;;5081428;28;20047;-72
2023/08/01 07:12:56;;;;;;;8.35;1.42;;;16.10;99.90;;;;;;5082675;28;20056;-72
2023/08/01 07:15:21;;;;;;;7.93;1.60;;;16.10;99.90;;;;;;5075461;28;20076;-72
2023/08/01 07:17:47;;;;;;;6.13;1.73;;;16.10;99.90;;;;;;5077198;28;20218;-72
2023/08/01 07:20:13;;;;;;;5.05;1.60;;;16.10;99.90;;;;;;5055573;28;20051;-72
2023/08/01 07:22:39;;;;;;;8.02;1.25;;;16.10;99.90;;;;;;5079202;28;20040;-72
2023/08/01 07:25:05;;;;;;;8.05;1.40;;;16.10;99.90;;;;;;5063691;28;20493;-72
2023/08/01 07:27:31;;;;;;;7.07;1.50;;;16.10;99.90;;;;;;5074261;28;20037;-72
2023/08/01 07:29:56;;;;;;;13.43;1.55;;;16.10;99.90;;;;;;5056457;28;20055;-72
2023/08/01 07:32:22;;;;;;;10.73;1.67;;;16.10;99.90;;;;;;5075110;28;20055;-73
2023/08/01 07:34:48;;;;;;;9.90;1.48;;;16.10;99.90;;;;;;5072832;28;20234;-73
2023/08/01 07:37:14;;;;;;;9.73;1.00;;;16.10;99.90;;;;;;5057133;28;20083;-72
2023/08/01 07:39:40;;;;;;;12.23;1.77;;;16.10;99.90;;;;;;5076336;28;20051;-72
2023/08/01 07:42:05;;;;;;;7.53;1.50;;;16.10;99.90;;;;;;5079199;28;20036;-73
2023/08/01 07:44:31;;;;;;;6.13;1.27;;;16.00;99.90;;;;;;5073996;28;20135;-72
2023/08/01 07:46:57;;;;;;;5.65;1.00;;;16.00;99.90;;;;;;5073719;28;22046;-72
2023/08/01 07:49:23;;;;;;;5.40;1.10;;;16.10;99.90;;;;;;5071754;28;20135;-72
2023/08/01 07:51:49;;;;;;;7.85;1.10;;;16.10;99.90;;;;;;5072820;28;20075;-72
2023/08/01 07:54:14;;;;;;;4.60;0.90;;;16.10;99.90;;;;;;5071852;28;20074;-72
2023/08/01 07:56:40;;;;;;;8.48;1.38;;;16.20;99.90;;;;;;5073079;28;20396;-72
2023/08/01 07:59:06;;;;;;;7.18;1.30;;;16.20;99.90;;;;;;5072016;28;20164;-73
2023/08/01 08:01:32;;;;;;;10.82;1.42;;;16.30;99.90;;;;;;5077931;28;20056;-72
2023/08/01 08:03:57;;;;;;;8.95;1.60;;;16.30;99.90;;;;;;5055173;28;20052;-73
2023/08/01 08:06:24;;;;;;;7.93;2.30;;;16.30;99.90;;;;;;5076512;28;20058;-73
2023/08/01 08:08:49;;;;;;;9.40;1.67;;;16.30;99.90;;;;;;5072194;28;20036;-71
2023/08/01 08:11:16;;;;;;;6.70;1.60;;;16.30;99.90;;;;;;5074026;28;20044;-71
2023/08/01 08:13:42;;;;;;;8.35;1.63;;;16.30;99.90;;;;;;5073959;28;20120;-71
2023/08/01 08:16:08;;;;;;;7.78;1.70;;;16.20;99.90;;;;;;5055322;28;20504;-71
2023/08/01 08:18:34;;;;;;;8.75;1.83;;;16.20;99.90;;;;;;5072104;28;20039;-71
2023/08/01 08:20:59;;;;;;;10.77;1.90;;;16.20;99.90;;;;;;5055065;28;20048;-71
2023/08/01 08:23:25;;;;;;;7.00;1.60;;;16.20;99.90;;;;;;5077691;28;20047;-71
2023/08/01 08:25:52;;;;;;;5.88;1.40;;;16.10;99.90;;;;;;5074519;28;20400;-71
2023/08/01 08:28:28;;;;;;;7.60;1.13;;;16.10;99.90;;;;;;5081181;28;20052;-72
2023/08/01 08:30:54;;;;;;;9.80;1.45;;;16.10;99.90;;;;;;5079134;28;20044;-72
2023/08/01 08:33:23;;;;;;;7.93;1.55;;;16.10;99.90;;;;;;5073510;28;20036;-71
2023/08/01 08:35:49;;;;;;;8.05;1.48;;;16.10;99.90;;;;;;5078690;28;20043;-72
2023/08/01 08:38:16;;;;;;;7.68;1.05;;;16.10;99.90;;;;;;5086659;28;20421;-71
2023/08/01 08:40:52;;;;;;;8.05;1.63;;;16.10;99.90;;;;;;5065449;28;20125;-71
2023/08/01 08:43:18;;;;;;;7.68;1.33;;;16.00;99.90;;;;;;5080057;28;20064;-71
2023/08/01 08:45:47;;;;;;;9.13;1.20;;;16.00;99.90;;;;;;5086330;28;20051;-71
2023/08/01 08:48:18;;;;;;;7.72;1.50;;;16.00;99.90;;;;;;5088143;28;20124;-71
2023/08/01 08:50:45;;;;;;;9.88;1.80;;;16.00;99.90;;;;;;5069667;28;20606;-71
2023/08/01 08:53:12;;;;;;;7.40;1.75;;;16.00;99.90;;;;;;5086129;28;20048;-72
2023/08/01 08:55:41;;;;;;;9.68;1.75;;;16.10;99.90;;;;;;5080760;28;20287;-71
2023/08/01 08:58:11;;;;;;;9.25;1.48;;;16.20;99.90;;;;;;5072889;28;20566;-71
2023/08/01 09:00:37;;;;;;;13.27;2.17;;;16.20;99.90;;;;;;5073843;28;20044;-72
2023/08/01 09:03:04;;;;;;;8.82;1.85;;;16.20;99.90;;;;;;5074518;28;20109;-71
2023/08/01 09:05:37;;;;;;;7.53;1.80;;;16.30;99.90;;;;;;5080359;28;20678;-71
2023/08/01 09:08:07;;;;;;;6.95;1.90;;;16.30;99.90;;;;;;5084625;28;20785;-71
2023/08/01 09:10:33;;;;;;;10.95;2.10;;;16.20;99.90;;;;;;5066323;28;20519;-71
2023/08/01 09:13:00;;;;;;;8.45;1.65;;;16.30;99.90;;;;;;5084744;28;20123;-71
2023/08/01 09:15:28;;;;;;;6.88;1.30;;;16.30;99.90;;;;;;5085641;28;20047;-71
2023/08/01 09:18:00;;;;;;;6.15;1.67;;;16.40;99.90;;;;;;5076727;28;20115;-72
2023/08/01 09:20:30;;;;;;;7.35;1.65;;;16.40;99.90;;;;;;5087679;28;20401;-72
2023/08/01 09:22:56;;;;;;;6.25;1.50;;;16.40;99.90;;;;;;5064166;28;20126;-72
2023/08/01 09:25:32;;;;;;;6.07;1.48;;;16.50;99.90;;;;;;5071717;28;20135;-72
2023/08/01 09:27:58;;;;;;;7.35;1.40;;;16.70;99.90;;;;;;5075628;28;20135;-72
2023/08/01 09:30:23;;;;;;;5.10;1.50;;;16.90;99.90;;;;;;5087875;28;20193;-72
2023/08/01 09:32:53;;;;;;;7.15;1.55;;;17.00;99.90;;;;;;5073729;28;20485;-72
2023/08/01 09:35:19;;;;;;;8.70;1.58;;;17.10;99.90;;;;;;5076016;28;20044;-72
2023/08/01 09:37:45;;;;;;;7.22;1.48;;;17.30;99.90;;;;;;5077104;28;20097;-72
2023/08/01 09:40:11;;;;;;;5.90;1.45;;;17.40;99.90;;;;;;5074053;28;20044;-72
2023/08/01 09:42:44;;;;;;;7.70;1.42;;;17.50;99.90;;;;;;5077345;28;20052;-73
2023/08/01 09:45:14;;;;;;;11.13;1.77;;;17.70;99.90;;;;;;5060259;28;20045;-72
2023/08/01 09:47:40;;;;;;;11.57;1.90;;;17.80;99.90;;;;;;5082788;28;20526;-72
2023/08/01 09:50:06;;;;;;;9.43;1.73;;;17.80;99.90;;;;;;5074787;28;20075;-72
2023/08/01 09:52:33;;;;;;;5.75;1.40;;;17.90;99.90;;;;;;5074141;28;20138;-73
2023/08/01 09:54:59;;;;;;;10.25;1.60;;;17.90;99.90;;;;;;5074360;28;20123;-72
2023/08/01 09:57:28;;;;;;;10.40;1.75;;;17.90;99.90;;;;;;5075224;28;20040;-72
2023/08/01 09:59:56;;;;;;;12.40;1.85;;;17.90;99.90;;;;;;5073769;28;20052;-72
2023/08/01 10:02:25;;;;;;;7.53;1.30;;;17.90;99.90;;;;;;5073591;28;20164;-73
2023/08/01 10:04:53;;;;;;;8.60;1.90;;;17.90;99.90;;;;;;5072552;28;20062;-72
2023/08/01 10:07:24;;;;;;;5.68;1.73;;;17.80;99.90;;;;;;5073121;28;20052;-73
2023/08/01 10:09:50;;;;;;;;;;;17.80;99.90;;;;;;5075827;28;20053;-73
2023/08/01 10:12:18;;;;;;;8.15;1.40;;;17.90;99.90;;;;;;5077732;28;19954;-73
2023/08/01 10:14:44;;;;;;;10.18;2.17;;;17.90;99.90;;;;;;5057210;28;20075;-74
2023/08/01 10:17:11;;;;;;;9.43;1.73;;;17.90;99.90;;;;;;5083988;28;20079;-73
2023/08/01 10:19:37;;;;;;;8.48;1.50;;;17.80;99.90;;;;;;5083366;28;20048;-73
2023/08/01 10:22:06;;;;;;;6.22;1.55;;;17.80;99.90;;;;;;5068020;28;20417;-73
2023/08/01 10:24:33;;;;;;;11.35;1.80;;;17.70;99.90;;;;;;5082689;28;20655;-73
2023/08/01 10:27:13;;;;;;;11.90;1.70;;;17.70;99.90;;;;;;5087458;28;20079;-73
2023/08/01 10:29:39;;;;;;;7.10;1.57;;;17.70;99.90;;;;;;5073305;28;20097;-73
2023/08/01 10:32:07;;;;;;;10.82;1.63;;;17.80;99.90;;;;;;5070979;28;20383;-73
2023/08/01 10:34:33;;;;;;;9.93;1.70;;;17.80;99.90;;;;;;5085389;28;20562;-74
2023/08/01 10:36:59;;;;;;;5.65;1.20;;;17.90;99.90;;;;;;5085427;28;20128;-74
2023/08/01 10:39:27;;;;;;;6.03;1.10;;;17.90;99.90;;;;;;5085284;28;20132;-74
2023/08/01 10:42:00;;;;;;;4.35;0.95;;;18.00;99.90;;;;;;5080195;28;20716;-74
2023/08/01 10:44:26;;;;;;;5.95;1.20;;;18.10;99.90;;;;;;5066408;28;20075;-74
2023/08/01 10:46:53;;;;;;;9.18;1.48;;;18.20;99.90;;;;;;5077293;28;20036;-77
2023/08/01 10:49:44;;;;;;;6.93;1.30;;;18.30;99.90;;;;;;5068730;28;20101;-74
2023/08/01 10:52:27;;;;;;;8.43;1.20;;;18.40;99.90;;;;;;5085289;28;20805;-74
2023/08/01 10:54:59;;;;;;;6.15;1.38;;;18.40;99.90;;;;;;5088143;28;20454;-73
2023/08/01 10:57:29;;;;;;;7.88;1.20;;;18.50;99.90;;;;;;5067276;28;20043;-74
2023/08/01 10:59:58;;;;;;;7.32;1.35;;;18.50;99.90;;;;;;5084791;28;20112;-73
2023/08/01 11:02:26;;;;;;;6.65;1.30;;;18.50;99.90;;;;;;5087913;28;20059;-74
2023/08/01 11:05:00;;;;;;;5.43;1.10;;;18.50;99.90;;;;;;5088609;28;20641;-74
2023/08/01 11:07:27;;;;;;;5.10;1.23;;;18.50;99.90;;;;;;5089286;28;20043;-74
2023/08/01 11:10:24;;;;;;;7.20;1.40;;;18.50;99.90;;;;;;5087426;28;20547;-74
2023/08/01 11:12:50;;;;;;;7.72;1.35;;;18.50;99.90;;;;;;5071445;28;20098;-74
2023/08/01 11:15:16;;;;;;;8.90;1.42;;;18.60;99.90;;;;;;5070488;28;20060;-74
2023/08/01 11:17:47;;;;;;;8.07;1.63;;;18.60;99.90;;;;;;5067712;28;20041;-74
2023/08/01 11:20:13;;;;;;;8.43;1.42;;;18.70;99.90;;;;;;5067009;28;20044;-74
2023/08/01 11:23:04;;;;;;;7.72;1.30;;;18.70;99.90;;;;;;5087666;28;20141;-74
2023/08/01 11:25:33;;;;;;;6.40;1.10;;;18.60;99.90;;;;;;5087302;28;20120;-74
2023/08/01 11:28:15;;;;;;;11.05;1.55;;;18.60;99.90;;;;;;5070669;28;20055;-74
2023/08/01 11:30:41;;;;;;;7.97;1.58;;;18.60;99.90;;;;;;5070559;28;20048;-74
2023/08/01 11:33:21;;;;;;;7.55;1.55;;;18.70;99.90;;;;;;5086617;28;20074;-74
2023/08/01 11:35:57;;;;;;;5.60;1.40;;;18.70;99.90;;;;;;5081756;28;20131;-74
2023/08/01 11:38:25;;;;;;;9.30;1.40;;;18.80;99.90;;;;;;5087525;28;20104;-74
2023/08/01 11:40:51;;;;;;;7.88;2.10;;;18.80;99.90;;;;;;5082935;28;20037;-74
2023/08/01 11:43:17;;;;;;;11.35;2.20;;;18.80;99.90;;;;;;5068611;28;20486;-75
2023/08/01 11:45:50;;;;;;;8.35;2.17;;;18.70;99.90;;;;;;5069783;28;20079;-74
2023/08/01 11:48:16;;;;;;;8.18;1.50;;;18.70;99.90;;;;;;5068645;28;20585;-75
2023/08/01 11:50:43;;;;;;;5.03;1.27;;;18.70;99.90;;;;;;5087043;28;20083;-74
2023/08/01 11:53:19;;;;;;;12.40;1.40;;;18.70;99.90;;;;;;5087489;28;20559;-74
2023/08/01 11:55:45;;;;;;;9.73;2.55;;;18.70;99.90;;;;;;5073351;28;20039;-74
2023/08/01 11:58:13;;;;;;;15.20;2.30;;;18.70;99.90;;;;;;5069783;28;20610;-74
2023/08/01 12:00:40;;;;;;;11.00;1.95;;;18.70;99.90;;;;;;5086744;28;20044;-73
2023/08/01 12:03:07;;;;;;;10.80;1.80;;;18.80;99.90;;;;;;5086990;28;20043;-73
2023/08/01 12:05:33;;;;;;;10.68;2.10;;;18.80;99.90;;;;;;5085266;28;20058;-74
2023/08/01 12:08:13;;;;;;;18.58;2.63;;;18.80;99.90;;;;;;5088379;28;20055;-74
2023/08/01 12:10:43;;;;;;;13.05;2.45;;;18.80;99.90;;;;;;5069910;28;20497;-74
2023/08/01 12:13:25;;;;;;;10.07;2.75;;;18.80;99.90;;;;;;5087053;28;20417;-73
2023/08/01 12:15:53;;;;;;;7.13;1.67;;;18.80;99.90;;;;;;5066127;28;20079;-74
2023/08/01 12:18:25;;;;;;;12.77;2.80;;;18.70;99.90;;;;;;5050167;28;20040;-74
2023/08/01 12:20:51;;;;;;;7.65;1.92;;;18.80;99.90;;;;;;5054921;28;20052;-75
2023/08/01 12:23:17;;;;;;;16.70;3.95;;;18.90;99.90;;;;;;5083505;28;20060;-74
2023/08/01 12:25:43;;;;;;;10.43;1.85;;;19.00;99.90;;;;;;5086277;28;20056;-73
2023/08/01 12:28:09;;;;;;;11.80;2.47;;;19.20;99.90;;;;;;5064373;28;20109;-75
2023/08/01 12:30:35;;;;;;;7.72;1.85;;;19.30;99.90;;;;;;5081224;28;20484;-74
2023/08/01 12:33:01;;;;;;;6.35;1.45;;;19.40;99.90;;;;;;5062803;28;20539;-75
2023/08/01 12:35:29;;;;;;;12.45;1.50;;;19.40;99.90;;;;;;5073431;28;20775;-74
2023/08/01 12:37:56;;;;;;;6.20;1.60;;;19.40;99.90;;;;;;5057790;28;20043;-75
2023/08/01 12:40:22;;;;;;;9.80;1.88;;;19.40;99.90;;;;;;5079372;28;20048;-75
2023/08/01 12:42:48;;;;;;;9.85;1.30;;;19.40;99.90;;;;;;5078254;28;20051;-74